Time;durP1;ratioP1;P1;durP2;ratioP2;P2;SDS_P1;SDS_P2;PMS_P1;PMS_P2;Temp;Humidity;BMP_temperature;BMP_pressure;BME280_temperature;BME280_humidity;BME280_pressure;Samples;Min_cycle;Max_cycle;Signal;HPM_P1;HPM_P2
2022/04/15 00:01:45;;;;;;;11.80;9.52;;;6.70;1.00;;;;;;5010362;28;20039;-88
2022/04/15 00:04:13;;;;;;;19.25;9.85;;;6.80;1.00;;;;;;5024883;28;20029;-89
2022/04/15 00:06:39;;;;;;;18.10;9.93;;;6.90;1.00;;;;;;5007368;28;20052;-88
2022/04/15 00:09:16;;;;;;;17.38;9.48;;;6.90;1.00;;;;;;5010871;28;20036;-88
2022/04/15 00:11:44;;;;;;;15.05;8.80;;;6.90;1.00;;;;;;5012270;28;20048;-87
2022/04/15 00:14:11;;;;;;;16.92;9.13;;;6.90;1.00;;;;;;5029923;28;20098;-88
2022/04/15 00:16:37;;;;;;;16.05;9.55;;;7.00;1.00;;;;;;5028838;28;20138;-88
2022/04/15 00:19:03;;;;;;;15.65;9.43;;;7.00;1.00;;;;;;5029817;28;20059;-88
2022/04/15 00:21:32;;;;;;;17.38;10.02;;;7.00;1.00;;;;;;5028931;28;20040;-86
2022/04/15 00:23:57;;;;;;;14.98;10.23;;;7.00;99.90;;;;;;5027348;28;20107;-88
2022/04/15 00:26:23;;;;;;;12.95;9.48;;;7.00;99.90;;;;;;5029607;28;20037;-87
2022/04/15 00:28:49;;;;;;;14.93;9.45;;;7.10;99.90;;;;;;5027774;28;20437;-88
2022/04/15 00:31:18;;;;;;;14.88;9.32;;;7.10;99.90;;;;;;5028620;28;20233;-88
2022/04/15 00:33:45;;;;;;;17.23;9.30;;;7.10;99.90;;;;;;5031672;28;20715;-87
2022/04/15 00:36:10;;;;;;;17.13;9.25;;;7.20;99.90;;;;;;5044270;28;20068;-89
2022/04/15 00:38:36;;;;;;;17.92;9.35;;;7.10;99.90;;;;;;5029786;28;20036;-89
2022/04/15 00:41:02;;;;;;;17.40;9.40;;;7.20;1.00;;;;;;5029801;28;20484;-87
2022/04/15 00:43:27;;;;;;;13.80;9.30;;;7.20;1.00;;;;;;5030494;28;20044;-87
2022/04/15 00:45:56;;;;;;;14.05;8.55;;;7.30;99.90;;;;;;5028826;28;20438;-87
2022/04/15 00:48:27;;;;;;;14.80;9.20;;;7.30;99.90;;;;;;5028866;28;20044;-88
2022/04/15 00:50:55;;;;;;;14.95;8.40;;;7.30;99.90;;;;;;5027084;28;20124;-87
2022/04/15 00:53:25;;;;;;;14.50;9.10;;;7.30;99.90;;;;;;5048760;28;20040;-88
2022/04/15 00:55:55;;;;;;;19.10;9.00;;;7.30;99.90;;;;;;5033548;28;20491;-88
2022/04/15 00:58:30;;;;;;;13.00;8.82;;;7.40;1.00;;;;;;5030845;28;20451;-87
2022/04/15 01:01:28;;;;;;;14.52;8.57;;;7.40;1.00;;;;;;5032643;28;20118;-88
2022/04/15 01:04:12;;;;;;;13.23;8.98;;;7.50;1.00;;;;;;5049265;28;20133;-88
2022/04/15 01:06:41;;;;;;;15.55;9.13;;;7.50;1.00;;;;;;5030283;28;20606;-88
2022/04/15 01:09:14;;;;;;;17.08;8.57;;;7.60;1.00;;;;;;5033854;28;20052;-88
2022/04/15 01:11:48;;;;;;;15.30;9.43;;;7.60;1.00;;;;;;5033803;28;20053;-88
2022/04/15 01:14:24;;;;;;;16.23;9.10;;;7.60;1.00;;;;;;5048385;28;20041;-88
2022/04/15 01:16:52;;;;;;;13.65;8.68;;;7.60;1.00;;;;;;5032805;28;20036;-88
2022/04/15 01:19:21;;;;;;;19.20;8.95;;;7.70;1.00;;;;;;5032562;28;20088;-89
2022/04/15 01:21:50;;;;;;;19.25;9.52;;;7.70;1.00;;;;;;5028981;28;20139;-88
2022/04/15 01:24:15;;;;;;;20.60;9.63;;;7.70;1.00;;;;;;5032343;28;20040;-87
2022/04/15 01:26:41;;;;;;;13.32;8.70;;;7.70;1.00;;;;;;5032547;28;20048;-87
2022/04/15 01:29:10;;;;;;;15.73;8.57;;;7.70;1.00;;;;;;5029370;28;20076;-88
2022/04/15 01:31:36;;;;;;;12.50;8.13;;;7.80;1.00;;;;;;5048695;28;20055;-87
2022/04/15 01:34:02;;;;;;;13.93;8.75;;;7.90;1.00;;;;;;5032773;28;20034;-87
2022/04/15 01:36:28;;;;;;;16.30;9.02;;;7.90;99.90;;;;;;5030842;28;20053;-88
2022/04/15 01:38:57;;;;;;;16.58;8.95;;;7.90;1.00;;;;;;5032516;28;20035;-87
2022/04/15 01:41:29;;;;;;;18.15;9.27;;;7.90;1.00;;;;;;5032007;28;20042;-88
2022/04/15 01:43:54;;;;;;;13.70;8.45;;;7.90;1.00;;;;;;5024383;28;20136;-88
2022/04/15 01:46:29;;;;;;;13.63;8.70;;;7.90;1.00;;;;;;5031858;28;20529;-87
2022/04/15 01:48:55;;;;;;;15.43;7.82;;;7.90;1.00;;;;;;5032732;28;20051;-88
2022/04/15 01:51:20;;;;;;;16.65;8.55;;;8.00;99.90;;;;;;5031257;28;20044;-86
2022/04/15 01:53:53;;;;;;;12.10;8.30;;;8.00;1.00;;;;;;5032754;28;20044;-88
2022/04/15 01:56:22;;;;;;;12.32;7.88;;;8.00;99.90;;;;;;5029600;28;20353;-87
2022/04/15 01:59:04;;;;;;;15.50;7.80;;;8.00;99.90;;;;;;5031981;28;20049;-88
2022/04/15 02:01:32;;;;;;;10.82;7.38;;;8.10;99.90;;;;;;5031902;28;20498;-88
2022/04/15 02:04:09;;;;;;;15.68;7.28;;;8.10;99.90;;;;;;5029531;28;20227;-89
2022/04/15 02:06:38;;;;;;;15.50;8.18;;;8.10;99.90;;;;;;5030764;28;20096;-89
2022/04/15 02:09:04;;;;;;;13.57;7.30;;;8.10;99.90;;;;;;5033032;28;20128;-87
2022/04/15 02:11:38;;;;;;;11.85;7.13;;;8.10;99.90;;;;;;5031682;28;20112;-88
2022/04/15 02:14:13;;;;;;;13.27;7.50;;;8.10;99.90;;;;;;5049021;28;20060;-88
2022/04/15 02:16:43;;;;;;;11.18;7.22;;;8.10;99.90;;;;;;5028963;28;20036;-87
2022/04/15 02:19:09;;;;;;;13.85;7.03;;;8.10;99.90;;;;;;5031288;28;20028;-88
2022/04/15 02:21:35;;;;;;;11.30;6.88;;;8.10;99.90;;;;;;5029713;28;20094;-87
2022/04/15 02:24:04;;;;;;;11.02;6.75;;;8.10;99.90;;;;;;5028494;28;20140;-88
2022/04/15 02:26:30;;;;;;;9.25;6.57;;;8.10;99.90;;;;;;5032617;28;20044;-88
2022/04/15 02:28:55;;;;;;;13.57;6.70;;;8.20;99.90;;;;;;5031688;28;20408;-88
2022/04/15 02:31:27;;;;;;;11.95;6.45;;;8.20;99.90;;;;;;5029715;28;20044;-89
2022/04/15 02:34:16;;;;;;;11.48;7.20;;;8.20;1.00;;;;;;5039941;28;20230;-88
2022/04/15 02:36:48;;;;;;;11.57;7.13;;;8.10;1.00;;;;;;5028054;28;20147;-88
2022/04/15 02:39:13;;;;;;;11.73;7.22;;;8.10;1.00;;;;;;5048891;28;20036;-87
2022/04/15 02:41:45;;;;;;;11.25;6.60;;;8.20;1.00;;;;;;5048538;28;20127;-88
2022/04/15 02:44:16;;;;;;;11.20;5.50;;;8.20;1.00;;;;;;5027108;28;20035;-89
2022/04/15 02:46:49;;;;;;;10.68;6.50;;;8.20;99.90;;;;;;5017715;28;20037;-88
2022/04/15 02:49:15;;;;;;;15.05;6.10;;;8.30;99.90;;;;;;5032237;28;20040;-87
2022/04/15 02:51:41;;;;;;;10.07;5.78;;;8.30;99.90;;;;;;5030322;28;20051;-87
2022/04/15 02:54:09;;;;;;;10.48;6.57;;;8.30;99.90;;;;;;5048292;28;20039;-89
2022/04/15 02:56:38;;;;;;;9.13;6.10;;;8.30;86.00;;;;;;5030819;28;20123;-89
2022/04/15 02:59:04;;;;;;;16.08;6.07;;;8.30;1.00;;;;;;5032983;28;20181;-88
2022/04/15 03:01:32;;;;;;;9.38;5.97;;;8.40;57.90;;;;;;5028811;28;20033;-89
2022/04/15 03:03:58;;;;;;;10.20;6.03;;;8.40;53.40;;;;;;5031764;28;20039;-88
2022/04/15 03:06:33;;;;;;;11.90;6.07;;;8.40;99.90;;;;;;5031396;28;20158;-88
2022/04/15 03:08:59;;;;;;;14.15;6.45;;;8.40;97.80;;;;;;5046804;28;20120;-88
2022/04/15 03:11:24;;;;;;;13.18;6.63;;;8.40;99.90;;;;;;5030893;28;20131;-87
2022/04/15 03:14:03;;;;;;;14.98;8.02;;;8.30;99.90;;;;;;5048379;28;20051;-88
2022/04/15 03:16:39;;;;;;;;;;;;;;;;;;;;;
2022/04/15 03:19:08;;;;;;;18.20;9.60;;;8.30;99.90;;;;;;5046542;28;20044;-88
2022/04/15 03:21:37;;;;;;;16.75;10.55;;;8.30;99.90;;;;;;5036738;28;20049;-89
2022/04/15 03:24:35;;;;;;;18.02;11.55;;;8.20;99.90;;;;;;5032616;28;20051;-89
2022/04/15 03:27:06;;;;;;;18.05;12.60;;;8.20;99.90;;;;;;5044077;28;20147;-87
2022/04/15 03:29:43;;;;;;;16.90;11.23;;;8.10;99.90;;;;;;5029505;28;20420;-90
2022/04/15 03:32:28;;;;;;;16.27;11.50;;;8.10;99.90;;;;;;5031926;28;20032;-87
2022/04/15 03:35:16;;;;;;;17.08;12.80;;;8.10;99.90;;;;;;5027190;28;20471;-88
2022/04/15 03:37:44;;;;;;;18.60;13.15;;;8.00;99.90;;;;;;5027875;28;20391;-87
2022/04/15 03:40:10;;;;;;;18.25;12.85;;;8.00;99.90;;;;;;5023177;28;20127;-88
2022/04/15 03:42:50;;;;;;;13.98;11.23;;;7.90;99.90;;;;;;5036858;28;20060;-90
2022/04/15 03:45:22;;;;;;;12.55;10.75;;;7.90;89.50;;;;;;5040621;28;20094;-88
2022/04/15 03:48:21;;;;;;;12.50;10.48;;;7.80;96.60;;;;;;5005087;28;20152;-88
2022/04/15 03:50:55;;;;;;;13.10;9.73;;;7.80;70.20;;;;;;5005265;28;20097;-88
2022/04/15 03:53:52;;;;;;;12.80;9.07;;;7.70;64.50;;;;;;5004918;28;20136;-88
2022/04/15 03:56:22;;;;;;;11.02;8.10;;;7.70;1.00;;;;;;4983076;28;20042;-88
2022/04/15 03:58:55;;;;;;;11.15;7.47;;;7.60;1.00;;;;;;4996861;28;20069;-90
2022/04/15 04:01:44;;;;;;;9.40;7.72;;;7.60;99.90;;;;;;5004600;28;20037;-89
2022/04/15 04:04:28;;;;;;;11.13;7.78;;;7.60;99.90;;;;;;4987100;28;20058;-88
2022/04/15 04:07:20;;;;;;;9.65;7.30;;;7.50;1.00;;;;;;4989410;28;20079;-88
2022/04/15 04:09:58;;;;;;;8.23;6.50;;;7.50;99.90;;;;;;5001444;28;20049;-88
2022/04/15 04:12:52;;;;;;;8.25;6.93;;;7.40;99.90;;;;;;4983672;28;20042;-88
2022/04/15 04:15:35;;;;;;;;;;;;;;;;;;;;;
2022/04/15 04:18:04;;;;;;;8.77;6.40;;;7.30;99.90;;;;;;5024002;28;20140;-88
2022/04/15 04:20:30;;;;;;;8.10;6.10;;;7.30;99.90;;;;;;5047254;28;20549;-89
2022/04/15 04:23:06;;;;;;;9.25;6.88;;;7.30;99.90;;;;;;5030229;28;20499;-89
2022/04/15 04:25:36;;;;;;;7.20;5.78;;;7.30;99.90;;;;;;5022475;28;20040;-89
2022/04/15 04:28:12;;;;;;;8.32;5.70;;;7.30;99.90;;;;;;5031578;28;20032;-87
2022/04/15 04:30:54;;;;;;;6.28;5.47;;;7.30;1.00;;;;;;5039969;28;20509;-89
2022/04/15 04:33:29;;;;;;;8.23;6.53;;;7.30;1.00;;;;;;5045997;28;20463;-88
2022/04/15 04:36:23;;;;;;;6.95;6.18;;;7.30;1.00;;;;;;5028462;28;20197;-89
2022/04/15 04:38:57;;;;;;;6.90;5.20;;;7.30;1.00;;;;;;5034357;28;20032;-88
2022/04/15 04:41:35;;;;;;;7.28;4.57;;;7.30;1.00;;;;;;5024816;28;20041;-88
2022/04/15 04:44:01;;;;;;;5.53;4.50;;;7.30;99.90;;;;;;5029610;28;20055;-89
2022/04/15 04:46:46;;;;;;;5.35;4.82;;;7.30;99.90;;;;;;5032174;28;20566;-90
2022/04/15 04:49:27;;;;;;;5.35;4.57;;;7.30;99.90;;;;;;5023167;28;20052;-89
2022/04/15 04:52:03;;;;;;;6.65;4.55;;;7.30;99.90;;;;;;5004533;28;20368;-89
2022/04/15 04:54:45;;;;;;;7.20;5.35;;;7.30;99.90;;;;;;5017584;28;20072;-89
2022/04/15 04:57:26;;;;;;;6.03;5.10;;;7.30;99.90;;;;;;4991103;28;20134;-89
2022/04/15 05:00:11;;;;;;;7.57;4.90;;;7.30;99.90;;;;;;5024427;28;20052;-88
2022/04/15 05:02:52;;;;;;;6.15;5.00;;;7.30;99.90;;;;;;4991410;28;20413;-87
2022/04/15 05:05:41;;;;;;;9.60;4.53;;;7.30;99.90;;;;;;4989752;28;20041;-89
2022/04/15 05:08:31;;;;;;;6.57;5.85;;;7.20;99.90;;;;;;5037639;28;20110;-89
2022/04/15 05:11:22;;;;;;;10.52;6.78;;;7.20;1.00;;;;;;5004269;28;20042;-89
2022/04/15 05:14:19;;;;;;;7.75;6.00;;;7.20;1.00;;;;;;5019891;28;20117;-88
2022/04/15 05:16:45;;;;;;;8.13;6.47;;;7.20;1.00;;;;;;4999692;28;20073;-89
2022/04/15 05:19:16;;;;;;;8.18;6.15;;;7.20;1.00;;;;;;5011323;28;20500;-90
2022/04/15 05:21:49;;;;;;;6.03;5.32;;;7.20;1.00;;;;;;5004414;28;20420;-88
2022/04/15 05:24:26;;;;;;;5.32;4.80;;;7.20;99.90;;;;;;5042397;28;20044;-88
2022/04/15 05:27:21;;;;;;;5.25;4.00;;;7.20;1.00;;;;;;5030895;28;20090;-88
2022/04/15 05:30:04;;;;;;;6.85;4.70;;;7.10;1.00;;;;;;5029917;28;20247;-87
2022/04/15 05:33:09;;;;;;;6.55;4.55;;;7.00;49.90;;;;;;5017635;28;20078;-87
2022/04/15 05:35:43;;;;;;;8.27;5.65;;;7.10;99.90;;;;;;5045760;28;20068;-88
2022/04/15 05:38:31;;;;;;;7.72;5.95;;;7.10;99.90;;;;;;5028865;28;20040;-88
2022/04/15 05:41:02;;;;;;;10.43;6.68;;;7.10;99.90;;;;;;5029183;28;20040;-90
2022/04/15 05:43:44;;;;;;;10.68;7.30;;;7.00;2.50;;;;;;5050587;28;20041;-89
2022/04/15 05:46:21;;;;;;;9.80;8.27;;;7.10;99.90;;;;;;5034877;28;20518;-89
2022/04/15 05:51:48;;;;;;;11.10;7.65;;;7.10;99.90;;;;;;5048711;28;20098;-88
2022/04/15 05:54:18;;;;;;;9.38;7.55;;;7.10;99.90;;;;;;5034103;28;20571;-88
2022/04/15 05:57:02;;;;;;;10.20;8.25;;;7.10;99.90;;;;;;5032170;28;20056;-89
2022/04/15 05:59:35;;;;;;;11.00;7.80;;;7.10;99.90;;;;;;5024228;28;20510;-90
2022/04/15 06:02:15;;;;;;;13.88;8.45;;;7.20;99.90;;;;;;5032456;28;20128;-88
2022/04/15 06:04:46;;;;;;;12.60;8.85;;;7.10;99.90;;;;;;5032329;28;20041;-90
2022/04/15 06:07:17;;;;;;;16.30;9.65;;;7.10;99.90;;;;;;5026062;28;20103;-90
2022/04/15 06:09:56;;;;;;;11.27;9.13;;;7.20;99.90;;;;;;5029784;28;20087;-89
2022/04/15 06:13:00;;;;;;;15.20;9.85;;;7.20;99.90;;;;;;5031093;28;20068;-89
2022/04/15 06:15:40;;;;;;;13.82;9.43;;;7.30;99.90;;;;;;5023505;28;20105;-89
2022/04/15 06:18:18;;;;;;;15.30;9.68;;;7.30;99.90;;;;;;5030619;28;20115;-89
2022/04/15 06:20:46;;;;;;;11.30;8.85;;;7.30;94.00;;;;;;5026691;28;20239;-88
2022/04/15 06:23:13;;;;;;;12.90;9.13;;;7.40;97.10;;;;;;5031623;28;20530;-89
2022/04/15 06:25:46;;;;;;;12.73;9.88;;;7.50;1.00;;;;;;5030666;28;20045;-88
2022/04/15 06:28:24;;;;;;;12.98;10.15;;;7.50;1.00;;;;;;5031200;28;20436;-88
2022/04/15 06:31:34;;;;;;;13.27;10.00;;;7.50;1.00;;;;;;5025948;28;20553;-88
2022/04/15 06:34:13;;;;;;;15.73;10.45;;;7.60;1.00;;;;;;5020917;28;20176;-89
2022/04/15 06:36:46;;;;;;;14.90;10.73;;;7.70;21.20;;;;;;5028975;28;20040;-88
2022/04/15 06:39:25;;;;;;;15.43;10.30;;;7.70;99.90;;;;;;4987971;28;20129;-88
2022/04/15 06:41:56;;;;;;;14.88;9.80;;;7.70;1.00;;;;;;4987755;28;20096;-88
2022/04/15 06:44:28;;;;;;;16.58;10.63;;;7.70;99.90;;;;;;4961035;28;20426;-88
2022/04/15 06:47:05;;;;;;;15.82;10.38;;;7.80;1.00;;;;;;4985713;28;20035;-88
2022/04/15 06:49:45;;;;;;;14.15;10.95;;;7.90;1.00;;;;;;4985270;28;20477;-88
2022/04/15 06:52:27;;;;;;;15.93;11.25;;;7.90;1.00;;;;;;4983651;28;20037;-88
2022/04/15 06:55:20;;;;;;;16.10;11.25;;;7.90;99.90;;;;;;4966346;28;20053;-88
2022/04/15 06:57:46;;;;;;;16.35;11.10;;;7.90;99.90;;;;;;4962666;28;20046;-89
2022/04/15 07:00:13;;;;;;;16.02;11.65;;;8.00;99.90;;;;;;4951777;28;20054;-89
2022/04/15 07:02:47;;;;;;;17.25;12.45;;;8.00;99.90;;;;;;4940418;29;20527;-90
2022/04/15 07:05:28;;;;;;;20.50;12.30;;;8.00;99.90;;;;;;4930784;29;20062;-90
2022/04/15 07:08:05;;;;;;;20.92;12.50;;;8.00;99.90;;;;;;4923828;28;20499;-90
2022/04/15 07:10:45;;;;;;;17.85;12.73;;;8.00;99.90;;;;;;4929273;29;20095;-89
2022/04/15 07:13:19;;;;;;;21.63;12.98;;;8.10;99.90;;;;;;4919528;29;20082;-88
2022/04/15 07:15:58;;;;;;;19.98;13.40;;;8.20;99.90;;;;;;4911267;28;20093;-89
2022/04/15 07:18:36;;;;;;;22.65;13.25;;;8.20;99.90;;;;;;4932792;28;20058;-88
2022/04/15 07:21:08;;;;;;;18.08;13.57;;;8.10;1.00;;;;;;4944263;28;20058;-90
2022/04/15 07:23:41;;;;;;;20.73;13.85;;;8.20;99.90;;;;;;4942918;28;20066;-89
2022/04/15 07:26:14;;;;;;;18.52;11.63;;;8.30;99.90;;;;;;4967213;28;20060;-88
2022/04/15 07:29:00;;;;;;;15.13;10.43;;;8.30;1.00;;;;;;4987472;28;20440;-88
2022/04/15 07:31:34;;;;;;;16.27;11.27;;;8.20;5.70;;;;;;4970326;28;20057;-89
2022/04/15 07:34:23;;;;;;;15.77;11.90;;;8.40;1.00;;;;;;5002503;28;20034;-89
2022/04/15 07:37:03;;;;;;;16.50;10.55;;;8.50;1.00;;;;;;4966694;28;20054;-88
2022/04/15 07:39:38;;;;;;;16.45;11.63;;;8.40;99.90;;;;;;4967075;28;20585;-87
2022/04/15 07:42:25;;;;;;;17.10;11.55;;;8.50;1.00;;;;;;4988931;28;20045;-88
2022/04/15 07:44:54;;;;;;;;;;;8.50;99.90;;;;;;4967745;28;20085;-87
2022/04/15 07:47:49;;;;;;;16.95;10.68;;;8.50;1.00;;;;;;5002361;28;19944;-88
2022/04/15 07:50:31;;;;;;;17.45;10.68;;;8.60;1.00;;;;;;4974481;28;20061;-88
2022/04/15 07:53:09;;;;;;;18.55;10.35;;;8.60;1.00;;;;;;5007355;28;20045;-88
2022/04/15 07:55:49;;;;;;;16.13;10.05;;;8.70;99.90;;;;;;5025780;28;20045;-89
2022/04/15 07:58:20;;;;;;;18.55;10.73;;;8.90;99.90;;;;;;5024770;28;20451;-89
2022/04/15 08:01:30;;;;;;;16.42;10.80;;;8.90;99.90;;;;;;5010564;28;20040;-89
2022/04/15 08:04:10;;;;;;;18.45;10.82;;;8.90;1.00;;;;;;5015636;28;20072;-88
2022/04/15 08:07:09;;;;;;;18.25;11.07;;;8.80;1.00;;;;;;5023965;28;20123;-89
2022/04/15 08:09:52;;;;;;;22.15;11.02;;;8.70;99.90;;;;;;5006165;28;20081;-88
2022/04/15 08:12:33;;;;;;;11.48;7.80;;;9.00;1.00;;;;;;5004313;28;20404;-89
2022/04/15 08:15:07;;;;;;;13.90;8.88;;;9.20;99.90;;;;;;5004519;28;20572;-89
2022/04/15 08:17:57;;;;;;;10.05;7.63;;;9.10;99.90;;;;;;4989908;28;20131;-88
2022/04/15 08:20:28;;;;;;;11.60;7.68;;;9.30;99.90;;;;;;5000152;28;20041;-88
2022/04/15 08:23:13;;;;;;;11.30;7.18;;;9.60;99.90;;;;;;5005329;28;20064;-89
2022/04/15 08:26:00;;;;;;;13.40;7.45;;;10.20;99.90;;;;;;4991068;28;20136;-87
2022/04/15 08:28:44;;;;;;;8.85;6.53;;;10.70;99.90;;;;;;4989536;28;20091;-88
2022/04/15 08:31:36;;;;;;;7.50;6.32;;;10.60;99.90;;;;;;4988736;28;20080;-88
2022/04/15 08:34:08;;;;;;;7.97;6.22;;;10.50;99.90;;;;;;5006581;28;20045;-89
2022/04/15 08:37:07;;;;;;;10.00;6.07;;;10.40;1.00;;;;;;5026907;28;20135;-89
2022/04/15 08:39:50;;;;;;;11.05;6.35;;;10.20;99.90;;;;;;4945297;28;20042;-88
2022/04/15 08:42:33;;;;;;;11.55;6.40;;;10.40;2.00;;;;;;4964856;28;20441;-89
2022/04/15 08:45:21;;;;;;;12.45;7.00;;;10.20;99.90;;;;;;5023521;28;20384;-88
2022/04/15 08:48:10;;;;;;;10.88;5.80;;;10.20;99.90;;;;;;5045993;28;20095;-88
2022/04/15 08:50:46;;;;;;;9.30;5.88;;;10.20;99.90;;;;;;5022952;28;20053;-87
2022/04/15 08:53:26;;;;;;;8.45;5.75;;;10.00;99.90;;;;;;5022013;28;20428;-88
2022/04/15 08:56:05;;;;;;;10.90;5.85;;;9.80;99.90;;;;;;5027522;28;20498;-90
2022/04/15 08:59:04;;;;;;;9.75;5.85;;;10.00;63.00;;;;;;5029362;28;20087;-88
2022/04/15 09:04:40;;;;;;;8.60;6.18;;;9.90;99.90;;;;;;5038590;28;20524;-88
2022/04/15 09:07:39;;;;;;;10.23;6.43;;;10.10;99.90;;;;;;5030608;28;20047;-89
2022/04/15 09:10:36;;;;;;;9.73;6.05;;;10.20;46.60;;;;;;5030367;28;20041;-88
2022/04/15 09:13:45;;;;;;;8.55;6.00;;;10.40;91.00;;;;;;5028734;28;20067;-88
2022/04/15 09:20:15;;;;;;;;;;;;;;;;;;;;;
2022/04/15 09:23:04;;;;;;;7.82;5.60;;;10.10;18.40;;;;;;5048738;28;20048;-89
2022/04/15 09:25:46;;;;;;;9.20;6.00;;;10.40;99.90;;;;;;5031217;28;20532;-89
2022/04/15 09:28:23;;;;;;;7.15;5.53;;;10.50;76.10;;;;;;5028041;28;20032;-90
2022/04/15 09:30:55;;;;;;;9.52;6.35;;;10.50;80.10;;;;;;5048262;28;20036;-87
2022/04/15 09:33:43;;;;;;;9.70;6.28;;;10.40;1.00;;;;;;5032699;28;20588;-88
2022/04/15 09:36:47;;;;;;;9.93;5.88;;;10.70;55.90;;;;;;5017349;28;20192;-87
2022/04/15 09:39:30;;;;;;;7.50;5.60;;;11.10;17.20;;;;;;5029953;28;20134;-88
2022/04/15 09:42:30;;;;;;;10.38;6.88;;;11.80;1.00;;;;;;5031699;28;20119;-89
2022/04/15 09:45:21;;;;;;;10.15;6.10;;;11.60;1.00;;;;;;5048367;28;20062;-89
2022/04/15 09:47:58;;;;;;;9.60;6.30;;;12.10;1.00;;;;;;5048227;28;20037;-89
2022/04/15 09:50:42;;;;;;;10.63;6.28;;;12.10;1.00;;;;;;5026747;28;20448;-87
2022/04/15 09:53:20;;;;;;;8.43;6.32;;;12.00;1.00;;;;;;5023746;28;20037;-88
2022/04/15 09:56:07;;;;;;;10.30;6.18;;;12.30;1.00;;;;;;5025621;28;20047;-90
2022/04/15 10:02:03;;;;;;;8.43;5.45;;;11.40;1.00;;;;;;5044426;28;20048;-88
2022/04/15 10:04:39;;;;;;;8.70;5.57;;;11.20;1.00;;;;;;5023786;28;20041;-88
2022/04/15 10:07:25;;;;;;;9.70;6.45;;;11.80;1.00;;;;;;5022870;28;20370;-90
2022/04/15 10:10:15;;;;;;;9.27;6.18;;;12.30;1.00;;;;;;5029891;28;20048;-88
2022/04/15 10:12:54;;;;;;;7.95;6.25;;;12.60;1.00;;;;;;5030541;28;20558;-88
2022/04/15 10:15:37;;;;;;;10.35;6.78;;;12.00;1.00;;;;;;5034469;28;20036;-88
2022/04/15 10:18:22;;;;;;;8.70;6.45;;;12.00;1.00;;;;;;5031194;28;20072;-88
2022/04/15 10:21:03;;;;;;;10.02;6.55;;;11.90;1.00;;;;;;5031338;28;20100;-89
2022/04/15 10:23:45;;;;;;;8.85;6.30;;;12.00;1.00;;;;;;5027743;28;20088;-88
2022/04/15 10:27:01;;;;;;;9.20;6.53;;;12.10;1.00;;;;;;5047643;28;20072;-88
2022/04/15 10:29:38;;;;;;;11.77;6.90;;;11.30;1.00;;;;;;4962347;28;20379;-89
2022/04/15 10:32:21;;;;;;;8.70;6.47;;;11.50;1.00;;;;;;5032186;28;20055;-88
2022/04/15 10:35:08;;;;;;;9.75;6.55;;;11.70;1.00;;;;;;5033919;28;20109;-88
2022/04/15 10:38:17;;;;;;;8.40;6.60;;;11.40;1.00;;;;;;5027328;28;20055;-88
2022/04/15 10:41:15;;;;;;;10.60;8.18;;;11.30;1.00;;;;;;5049165;28;20043;-89
2022/04/15 10:44:26;;;;;;;;;;;;;;;;;;;;;
2022/04/15 10:50:34;;;;;;;8.63;6.13;;;11.10;71.30;;;;;;4980866;28;20047;-89
2022/04/15 10:53:36;;;;;;;9.88;6.70;;;10.80;4.40;;;;;;5003539;28;20045;-88
2022/04/15 10:56:24;;;;;;;9.80;6.60;;;11.30;1.00;;;;;;5001803;28;20084;-88
2022/04/15 11:02:12;;;;;;;7.83;6.57;;;11.50;1.00;;;;;;5007201;28;20368;-88
2022/04/15 11:04:56;;;;;;;6.25;5.65;;;11.60;1.00;;;;;;4996759;28;20826;-88
2022/04/15 11:07:35;;;;;;;7.07;6.18;;;11.50;1.00;;;;;;4990289;28;20060;-89
2022/04/15 11:10:34;;;;;;;8.00;6.00;;;11.00;1.00;;;;;;5029450;28;20281;-87
2022/04/15 11:13:32;;;;;;;6.90;6.20;;;11.50;1.00;;;;;;4984078;28;20135;-90
2022/04/15 11:16:10;;;;;;;9.32;6.75;;;10.90;1.00;;;;;;4989768;28;20050;-88
2022/04/15 11:18:53;;;;;;;8.90;6.20;;;10.90;1.00;;;;;;4990020;28;20526;-89
2022/04/15 11:21:45;;;;;;;6.78;5.95;;;10.60;1.00;;;;;;5005758;28;20057;-89
2022/04/15 11:25:03;;;;;;;8.57;6.20;;;10.90;1.00;;;;;;4984402;28;20606;-89
2022/04/15 11:28:06;;;;;;;9.45;6.18;;;10.70;92.80;;;;;;4988531;28;20091;-90
2022/04/15 11:30:37;;;;;;;8.40;6.05;;;10.60;42.30;;;;;;5002691;28;20050;-88
2022/04/15 11:33:17;;;;;;;8.57;6.40;;;10.80;1.00;;;;;;5045171;28;20041;-89
2022/04/15 11:36:18;;;;;;;9.38;6.10;;;10.50;1.00;;;;;;5028736;28;20055;-88
2022/04/15 11:39:11;;;;;;;8.38;6.05;;;10.80;1.00;;;;;;5022380;28;20132;-90
2022/04/15 11:42:23;;;;;;;9.65;6.20;;;10.80;1.00;;;;;;5031309;28;20072;-89
2022/04/15 11:44:54;;;;;;;8.45;6.35;;;10.50;1.00;;;;;;5045928;28;20059;-89
2022/04/15 11:47:42;;;;;;;8.40;6.60;;;10.80;1.00;;;;;;5030317;28;20052;-89
2022/04/15 11:50:25;;;;;;;11.25;6.82;;;10.50;1.00;;;;;;5031072;28;20045;-89
2022/04/15 11:56:25;;;;;;;8.80;6.50;;;10.40;1.00;;;;;;5048014;28;20037;-88
2022/04/15 11:58:57;;;;;;;7.60;6.38;;;11.10;6.90;;;;;;5021006;28;20793;-88
2022/04/15 12:01:33;;;;;;;7.70;5.85;;;11.20;1.00;;;;;;5047193;28;20056;-90
2022/04/15 12:04:32;;;;;;;9.10;6.47;;;11.20;1.00;;;;;;5050907;28;20108;-89
2022/04/15 12:07:29;;;;;;;8.55;6.93;;;10.50;42.80;;;;;;5022805;28;20048;-87
2022/04/15 12:10:17;;;;;;;7.70;6.43;;;10.50;53.20;;;;;;5051629;28;20144;-89
2022/04/15 12:13:22;;;;;;;8.80;6.53;;;10.70;1.00;;;;;;5058002;28;20052;-90
2022/04/15 12:16:17;;;;;;;8.27;6.03;;;10.30;1.00;;;;;;5045706;28;20401;-90
2022/04/15 12:18:56;;;;;;;6.13;5.35;;;10.60;32.40;;;;;;5047025;28;20053;-89
2022/04/15 12:21:27;;;;;;;8.70;5.38;;;11.00;1.00;;;;;;5034000;28;20048;-89
2022/04/15 12:24:20;;;;;;;7.50;6.10;;;11.40;1.00;;;;;;5029976;28;20139;-88
2022/04/15 12:26:47;;;;;;;9.65;6.25;;;11.50;1.00;;;;;;5025336;28;20110;-89
2022/04/15 12:32:39;;;;;;;10.00;7.07;;;11.30;1.00;;;;;;5042355;28;20044;-88
2022/04/15 12:35:18;;;;;;;7.95;6.30;;;11.20;77.10;;;;;;5030362;28;20116;-89
2022/04/15 12:38:05;;;;;;;11.48;6.45;;;11.40;1.00;;;;;;5043603;28;20041;-90
2022/04/15 12:40:52;;;;;;;8.65;6.70;;;11.00;1.00;;;;;;5030762;28;20076;-89
2022/04/15 12:43:36;;;;;;;8.88;6.38;;;11.40;1.00;;;;;;5028043;28;20154;-88
2022/04/15 12:46:18;;;;;;;9.00;6.55;;;11.10;1.00;;;;;;5029158;28;20036;-89
2022/04/15 12:48:53;;;;;;;8.15;6.43;;;11.50;1.00;;;;;;5029283;28;20045;-88
2022/04/15 12:51:22;;;;;;;9.82;6.82;;;11.60;1.00;;;;;;5025123;28;20048;-90
2022/04/15 12:54:27;;;;;;;10.90;6.60;;;11.10;1.00;;;;;;5048834;28;20707;-88
2022/04/15 12:56:59;;;;;;;7.32;6.30;;;11.10;1.00;;;;;;5029929;28;20051;-89
2022/04/15 12:59:38;;;;;;;7.47;6.57;;;11.50;1.00;;;;;;5030225;28;20504;-89
2022/04/15 13:02:14;;;;;;;9.52;7.05;;;11.20;1.00;;;;;;5030388;28;20047;-91
2022/04/15 13:04:52;;;;;;;10.02;7.65;;;11.20;44.20;;;;;;5027591;28;20047;-89
2022/04/15 13:07:38;;;;;;;9.32;6.90;;;11.30;1.00;;;;;;5043226;28;20052;-88
2022/04/15 13:10:12;;;;;;;8.73;7.05;;;11.30;1.00;;;;;;5026653;28;20057;-89
2022/04/15 13:15:34;;;;;;;9.07;6.30;;;11.50;1.00;;;;;;5061135;28;20048;-91
2022/04/15 13:18:14;;;;;;;8.93;7.15;;;11.10;1.00;;;;;;5059222;28;20507;-90
2022/04/15 13:21:26;;;;;;;9.55;6.97;;;10.80;1.00;;;;;;5030482;28;20046;-90
2022/04/15 13:24:02;;;;;;;9.50;7.47;;;10.40;99.90;;;;;;4970414;28;20493;-88
2022/04/15 13:26:41;;;;;;;9.80;7.57;;;10.50;58.80;;;;;;5057233;28;20159;-89
2022/04/15 13:29:10;;;;;;;11.98;7.38;;;10.60;1.00;;;;;;5040594;28;20555;-90
2022/04/15 13:31:41;;;;;;;9.30;7.80;;;11.00;19.80;;;;;;5029345;28;20053;-88
2022/04/15 13:34:22;;;;;;;8.57;6.93;;;10.90;1.00;;;;;;5029749;28;20113;-89
2022/04/15 13:36:55;;;;;;;10.55;6.95;;;11.10;1.00;;;;;;5020612;28;20082;-89
2022/04/15 13:39:37;;;;;;;9.32;6.03;;;10.70;1.00;;;;;;5043566;28;20067;-89
2022/04/15 13:42:08;;;;;;;8.88;6.72;;;10.90;1.00;;;;;;5028900;28;20577;-87
2022/04/15 13:44:42;;;;;;;9.00;7.15;;;10.90;2.20;;;;;;5031190;28;20048;-89
2022/04/15 13:47:13;;;;;;;11.50;7.20;;;10.50;1.00;;;;;;5030280;28;20091;-91
2022/04/15 13:49:53;;;;;;;11.30;7.75;;;10.40;51.20;;;;;;5028685;28;20036;-90
2022/04/15 13:58:51;;;;;;;8.45;6.38;;;10.80;51.40;;;;;;5047957;28;20041;-90
2022/04/15 14:04:26;;;;;;;10.45;6.63;;;10.40;43.90;;;;;;5036534;28;20063;-92
2022/04/15 14:07:08;;;;;;;8.48;6.65;;;10.50;41.60;;;;;;5049058;28;20118;-86
2022/04/15 14:09:37;;;;;;;8.75;6.28;;;10.20;93.00;;;;;;5035258;28;20145;-89
2022/04/15 14:12:05;;;;;;;9.43;6.90;;;10.70;95.00;;;;;;5029515;28;20080;-86
2022/04/15 14:17:58;;;;;;;11.80;6.60;;;10.50;1.00;;;;;;5045961;28;20132;-91
2022/04/15 14:20:39;;;;;;;7.30;6.55;;;10.60;1.00;;;;;;5033606;28;20179;-89
2022/04/15 14:23:24;;;;;;;9.90;6.53;;;10.30;55.80;;;;;;5030908;28;20048;-88
2022/04/15 14:28:41;;;;;;;9.23;7.15;;;10.50;99.90;;;;;;5053123;28;20084;-88
2022/04/15 14:31:12;;;;;;;10.68;7.63;;;10.60;8.10;;;;;;5034159;28;20047;-89
2022/04/15 14:33:44;;;;;;;11.02;7.47;;;10.60;8.60;;;;;;5032581;28;20049;-89
2022/04/15 14:36:26;;;;;;;11.45;8.07;;;10.60;24.90;;;;;;5041596;28;20055;-88
2022/04/15 14:39:07;;;;;;;10.90;6.95;;;10.40;69.50;;;;;;5033259;28;20082;-87
2022/04/15 14:41:33;;;;;;;9.15;6.20;;;10.10;98.10;;;;;;5031819;28;20541;-89